Station: Sydney Airport  

  Atmospheric Gas Attenuation - ITU Rec 676-11   ----------------- dB/100km -----------------
Date Time Temp RH % AH g/m3 Dew Point Wind Direction Speed kph Gust kph Barometer mB Rainfall Since 9am 24GHz 47GHz 76GHz 122GHz 134GHz 241GHz
08/05 12:30 20.3 35 6.16 4.4 37 39 1016.5 0 14.2 20.7 28.3 73.7 62.5 213.5
08/05 12:20 19.9 34 5.84 3.6 35 39 1016.7 0 13.5 20.4 27.3 71.2 59.3 202.2
08/05 12:10 19.3 35 5.8 3.5 28 35 1016.9 0 13.4 20.5 27.4 71.3 59.3 202.1
08/05 12:00 19.5 37 6.21 4.4 37 43 1017.1 0 14.3 21.0 28.7 74.9 63.8 217.7
08/05 11:50 19.5 38 6.38 4.8 30 35 1017.2 0 14.6 21.2 29.3 76.4 65.7 224.4
08/05 11:40 19.3 36 5.97 3.9 35 41 1017.3 0 13.8 20.7 28.0 72.9 61.2 208.8
08/05 11:30 18.3 40 6.25 4.5 32 35 1017.3 0 14.4 21.3 29.3 76.4 65.2 222.5
08/05 11:20 18.9 37 5.99 3.9 33 39 1017.3 0 13.9 20.8 28.2 73.4 61.8 210.6
08/05 11:10 18 38 5.84 3.5 30 39 1017.5 0 13.6 20.8 28.0 72.9 60.8 207.0
08/05 11:00 18.6 40 6.37 4.8 35 41 1017.7 0 14.7 21.4 29.6 77.2 66.3 226.6
08/05 10:50 18.1 39 6.03 3.9 35 39 1017.9 0 14.0 21.1 28.6 74.6 62.9 214.4
08/05 10:40 18.1 40 6.18 4.3 32 35 1018.1 0 14.3 21.3 29.1 76.0 64.6 220.4
08/05 10:30 17.7 41 6.19 4.3 37 46 1018.1 0 14.3 21.4 29.3 76.4 65.0 221.9
08/05 10:20 17.5 42 6.26 4.5 44 50 1018.1 0 14.5 21.6 29.6 77.3 66.0 225.3
08/05 10:10 16.9 43 6.18 4.3 28 35 1018.2 0 14.3 21.6 29.6 77.1 65.6 223.7
08/05 10:00 16.5 44 6.18 4.2 26 32 1018.4 0 14.3 21.7 29.7 77.5 65.9 224.8
08/05 09:50 16.2 45 6.21 4.3 26 30 1018.4 0 14.4 21.8 29.9 78.1 66.5 226.9
08/05 09:40 15.7 46 6.15 4.1 22 26 1018.5 0 14.3 21.8 29.9 78.0 66.2 225.8
08/05 09:30 15.7 45 6.02 3.8 24 28 1018.4 0 14.0 21.6 29.5 76.8 64.7 220.5
08/05 09:20 15.2 48 6.23 4.3 28 30 1018.4 0 14.5 22.1 30.4 79.2 67.6 230.5
08/05 09:10 14.7 48 6.04 3.8 28 32 1018.4 0 14.1 21.9 29.9 77.9 65.7 224.0
08/05 09:00 14.5 48 5.97 3.6 30 33 1018.5 0 14.0 21.9 29.7 77.4 65.1 221.7
08/05 08:50 14.2 48 5.86 3.4 28 39 1018.6 0 13.7 21.8 29.4 76.7 64.0 217.9
08/05 08:40 14.1 47 5.7 3 26 32 1018.6 0 13.4 21.6 28.9 75.2 62.2 211.5
08/05 08:30 13.8 49 5.84 3.3 19 22 1018.6 0 13.7 21.8 29.5 76.9 64.1 218.2
08/05 08:20 13.1 48 5.48 2.4 20 24 1018.6 0 13.0 21.5 28.5 74.0 60.4 205.0
08/05 08:10 12.9 50 5.64 2.7 19 20 1018.4 0 13.3 21.8 29.1 75.8 62.4 212.1
08/05 08:00 12.6 51 5.64 2.7 22 26 1018.4 0 13.3 21.8 29.2 76.0 62.6 212.9
08/05 07:50 12 52 5.54 2.5 19 20 1018.3 0 13.1 21.8 29.0 75.6 61.9 210.2
08/05 07:40 11.6 54 5.61 2.6 19 22 1018.3 0 13.3 22.0 29.4 76.7 63.1 214.3
08/05 07:30 11.3 54 5.51 2.3 17 20 1018.2 0 13.1 21.9 29.2 76.0 62.1 210.8
08/05 07:20 11.1 54 5.44 2.2 20 26 1018.1 0 13.0 21.9 29.0 75.5 61.4 208.3
08/05 07:10 11.1 56 5.64 2.7 19 20 1018 0 13.4 22.2 29.7 77.4 63.8 216.8
08/05 07:00 10.5 57 5.53 2.4 19 26 1018.1 0 13.2 22.2 29.5 76.9 63.0 213.7
08/05 06:50 10.3 59 5.65 2.7 17 20 1018.1 0 13.4 22.4 30.1 78.3 64.6 219.5
08/05 06:40 10.2 59 5.62 2.6 19 22 1018.1 0 13.4 22.4 30.0 78.1 64.3 218.4
08/05 06:30 10.4 58 5.59 2.5 19 19 1018.2 0 13.3 22.3 29.8 77.6 63.8 216.6
08/05 06:20 10.4 59 5.69 2.7 20 28 1018 0 13.5 22.4 30.2 78.6 65.0 220.9
08/05 06:10 10.4 58 5.59 2.5 22 26 1018 0 13.3 22.3 29.8 77.6 63.8 216.6
08/05 06:00 10.2 59 5.62 2.6 20 22 1018.1 0 13.4 22.4 30.0 78.1 64.3 218.4
08/05 05:50 10.4 58 5.59 2.5 22 26 1018 0 13.3 22.3 29.8 77.6 63.8 216.6
08/05 05:40 10.6 59 5.76 2.9 20 24 1017.9 0 13.7 22.5 30.4 79.1 65.7 223.4
08/05 05:30 10.2 58 5.52 2.3 19 26 1017.9 0 13.2 22.2 29.6 77.1 63.1 214.1
08/05 05:20 10.3 58 5.56 2.4 17 19 1017.9 0 13.2 22.2 29.7 77.4 63.5 215.5
08/05 05:10 9.9 58 5.42 2 20 24 1017.9 0 13.0 22.1 29.3 76.4 62.1 210.5
08/05 05:00 10.4 57 5.49 2.3 17 26 1017.9 0 13.1 22.1 29.4 76.6 62.5 212.2
08/05 04:50 10.8 56 5.54 2.4 17 19 1017.8 0 13.2 22.1 29.5 76.7 62.8 213.3
08/05 04:40 10.2 57 5.43 2.1 20 24 1018 0 13.0 22.1 29.3 76.2 62.0 210.2
08/05 04:30 10.5 56 5.43 2.1 24 32 1018 0 13.0 22.0 29.2 75.9 61.7 209.4
08/05 04:20 10.6 57 5.56 2.4 22 26 1017.9 0 13.2 22.2 29.6 77.1 63.2 214.7
08/05 04:10 10.2 57 5.43 2.1 19 22 1017.7 0 13.0 22.1 29.3 76.2 61.9 210.1
08/05 04:00 10.2 57 5.43 2.1 22 28 1017.7 0 13.0 22.1 29.3 76.2 61.9 210.1
08/05 03:50 10.1 57 5.39 2 24 28 1017.8 0 12.9 22.0 29.2 75.9 61.5 208.7
08/05 03:40 10.2 58 5.52 2.3 24 26 1018 0 13.2 22.2 29.6 77.1 63.1 214.1
08/05 03:30 9.9 58 5.42 2 22 28 1018 0 13.0 22.1 29.3 76.4 62.1 210.5
08/05 03:20 10 57 5.36 1.9 24 28 1018.2 0 12.8 22.0 29.1 75.7 61.3 207.7
08/05 03:10 10 57 5.36 1.9 22 28 1018.2 0 12.8 22.0 29.1 75.7 61.3 207.7
08/05 03:00 10 57 5.36 1.9 24 33 1018.3 0 12.8 22.0 29.1 75.7 61.3 207.7
08/05 02:50 9.9 57 5.32 1.8 24 30 1018.4 0 12.8 22.0 29.0 75.4 60.9 206.3
08/05 02:40 9.7 57 5.26 1.6 20 28 1018.6 0 12.6 22.0 28.8 75.0 60.3 204.2
08/05 02:30 9.7 56 5.16 1.4 22 30 1018.6 0 12.4 21.8 28.5 74.1 59.1 199.9
08/05 02:20 9.7 56 5.16 1.4 20 24 1018.6 0 12.4 21.8 28.5 74.1 59.1 199.9
08/05 02:10 9.6 56 5.13 1.3 26 28 1018.6 0 12.4 21.8 28.4 73.9 58.8 198.9
08/05 02:00 9.7 55 5.07 1.1 20 28 1018.7 0 12.2 21.7 28.1 73.2 58.0 196.1
08/05 01:50 9.8 54 5.01 0.9 20 26 1018.9 0 12.1 21.6 27.9 72.5 57.2 193.3
08/05 01:40 9.8 53 4.92 0.7 17 20 1019.1 0 11.9 21.4 27.6 71.6 56.1 189.5
08/05 01:30 9.6 52 4.76 0.2 13 20 1019.2 0 11.6 21.3 27.1 70.3 54.3 183.2
08/05 01:20 9.9 51 4.76 0.3 15 17 1019.2 0 11.6 21.2 27.0 70.0 54.1 182.5
08/05 01:10 9.9 51 4.76 0.3 13 17 1019.3 0 11.6 21.2 27.0 70.0 54.1 182.6
08/05 01:00 9.9 52 4.86 0.5 20 28 1019.3 0 11.8 21.3 27.3 71.0 55.3 186.8
08/05 00:50 9.8 52 4.83 0.4 19 22 1019.5 0 11.7 21.3 27.3 70.8 55.0 185.8
08/05 00:40 9.7 52 4.8 0.3 22 28 1019.6 0 11.7 21.3 27.2 70.6 54.7 184.7
08/05 00:20 9.8 52 4.83 0.4 22 26 1019.5 0 11.7 21.3 27.3 70.8 55.0 185.8
08/05 00:10 9.7 52 4.8 0.3 20 22 1019.3 0 11.7 21.3 27.2 70.6 54.7 184.7
08/05 00:00 9.7 54 4.98 0.9 19 26 1019.5 0 12.0 21.6 27.8 72.4 56.9 192.4
07/05 23:50 9.8 52 4.83 0.4 19 20 1019.6 0 11.7 21.3 27.3 70.8 55.0 185.8
07/05 23:40 10.2 50 4.76 0.3 17 20 1019.6 0 11.6 21.1 26.9 69.8 53.9 181.9
07/05 23:30 10.6 48 4.69 0.1 17 19 1019.6 0 11.4 20.9 26.5 68.8 52.8 178.1
07/05 23:20 10.8 48 4.75 0.2 19 20 1019.4 0 11.5 21.0 26.6 69.1 53.4 180.1
07/05 23:10 10.7 48 4.72 0.2 19 26 1019.2 0 11.4 20.9 26.6 68.9 53.1 179.1
07/05 23:00 10.6 48 4.69 0.1 30 37 1019.2 0 11.4 20.9 26.5 68.7 52.8 178.1
07/05 22:50 10.6 50 4.88 0.6 28 32 1019.2 0 11.8 21.2 27.2 70.6 55.1 186.0
07/05 22:40 10.8 47 4.65 0 20 24 1019.3 0 11.3 20.8 26.3 68.2 52.2 176.0
07/05 22:30 11 47 4.71 0.1 26 35 1019.4 0 11.4 20.9 26.4 68.6 52.8 178.0
07/05 22:20 11 47 4.71 0.1 26 28 1019.4 0 11.4 20.9 26.4 68.6 52.8 178.0
07/05 22:10 11.3 46 4.69 0.1 26 30 1019.4 0 11.4 20.8 26.3 68.2 52.4 176.6
07/05 22:00 11.2 45 4.56 -0.3 28 33 1019.4 0 11.1 20.6 25.8 67.0 50.9 171.4
07/05 21:50 11.4 45 4.62 -0.1 28 33 1019.5 0 11.2 20.7 26.0 67.4 51.5 173.5
07/05 21:40 11.5 44 4.55 -0.3 26 33 1019.5 0 11.1 20.5 25.7 66.7 50.6 170.4
07/05 21:30 11.6 43 4.47 -0.5 28 39 1019.4 0 10.9 20.4 25.4 65.8 49.6 166.9
07/05 21:20 11.6 43 4.47 -0.5 28 32 1019.3 0 10.9 20.4 25.4 65.8 49.6 166.9
07/05 21:10 11.7 43 4.5 -0.4 22 33 1019.3 0 11.0 20.4 25.5 66.0 49.9 167.9
07/05 21:00 11.6 43 4.47 -0.5 30 43 1019.2 0 10.9 20.4 25.4 65.8 49.6 166.9
07/05 20:50 11.7 43 4.5 -0.4 26 30 1019.1 0 11.0 20.4 25.5 66.0 49.9 167.9
07/05 20:40 11.7 42 4.39 -0.8 24 26 1019 0 10.7 20.2 25.1 65.0 48.6 163.4
07/05 20:30 11.8 42 4.42 -0.7 28 35 1018.9 0 10.8 20.3 25.1 65.2 48.9 164.4
07/05 20:20 11.8 41 4.32 -1 28 33 1018.9 0 10.6 20.1 24.8 64.2 47.7 160.3
07/05 20:10 11.8 41 4.32 -1 28 30 1018.9 0 10.6 20.1 24.8 64.2 47.7 160.3
07/05 20:00 12 40 4.26 -1.2 30 41 1018.8 0 10.4 20.0 24.5 63.5 46.9 157.5
07/05 19:50 12.2 39 4.21 -1.3 32 39 1018.7 0 10.3 19.9 24.3 62.9 46.2 155.1

Last Refresh: 08-May-2026 12:08:50

Bureau of Meteorology